Time;durP1;ratioP1;P1;durP2;ratioP2;P2;SDS_P1;SDS_P2;PMS_P1;PMS_P2;Temp;Humidity;BMP_temperature;BMP_pressure;BME280_temperature;BME280_humidity;BME280_pressure;Samples;Min_cycle;Max_cycle;Signal;HPM_P1;HPM_P2
2022/12/20 00:01:33;;;;;;;26.63;17.30;;;1.00;99.90;;;;;;5031861;28;20208;-50
2022/12/20 00:04:04;;;;;;;29.53;18.43;;;1.00;99.90;;;;;;5031327;28;20243;-50
2022/12/20 00:06:31;;;;;;;24.83;17.83;;;1.10;99.90;;;;;;5029323;28;20591;-49
2022/12/20 00:09:00;;;;;;;27.03;18.20;;;1.10;99.90;;;;;;5023225;28;20697;-50
2022/12/20 00:11:28;;;;;;;27.67;17.70;;;1.10;99.90;;;;;;5032480;28;20216;-50
2022/12/20 00:13:55;;;;;;;24.70;17.03;;;1.10;99.90;;;;;;5032430;28;20228;-50
2022/12/20 00:16:24;;;;;;;26.67;17.37;;;1.10;99.90;;;;;;5030093;28;20652;-51
2022/12/20 00:18:52;;;;;;;27.23;19.23;;;1.10;99.90;;;;;;5031571;28;20242;-50
2022/12/20 00:21:21;;;;;;;31.40;17.50;;;1.10;99.90;;;;;;5030374;28;20220;-49
2022/12/20 00:23:48;;;;;;;24.87;17.40;;;1.00;99.90;;;;;;5025750;28;20331;-50
2022/12/20 00:26:17;;;;;;;26.47;17.93;;;1.00;99.90;;;;;;5030087;28;20203;-50
2022/12/20 00:28:45;;;;;;;26.47;17.67;;;1.00;99.90;;;;;;5030359;28;20204;-51
2022/12/20 00:31:14;;;;;;;26.87;17.57;;;1.00;99.90;;;;;;5031849;28;20241;-50
2022/12/20 00:33:41;;;;;;;25.83;16.53;;;1.00;99.90;;;;;;5031470;28;20715;-52
2022/12/20 00:36:09;;;;;;;27.43;17.80;;;0.90;99.90;;;;;;5019684;28;20301;-50
2022/12/20 00:38:37;;;;;;;31.07;19.47;;;0.90;99.90;;;;;;5029151;28;20303;-50
2022/12/20 00:41:06;;;;;;;25.53;18.47;;;0.90;99.90;;;;;;5028518;28;20676;-50
2022/12/20 00:43:34;;;;;;;28.30;17.67;;;1.00;99.90;;;;;;5029178;28;20704;-50
2022/12/20 00:46:02;;;;;;;26.50;18.73;;;1.00;99.90;;;;;;5030409;28;20211;-51
2022/12/20 00:48:31;;;;;;;30.83;20.13;;;1.00;99.90;;;;;;5031379;28;20203;-50
2022/12/20 00:50:59;;;;;;;25.23;17.83;;;1.00;99.90;;;;;;5031386;28;20200;-50
2022/12/20 00:53:26;;;;;;;29.97;18.83;;;1.00;99.90;;;;;;5031498;28;20229;-51
2022/12/20 00:55:55;;;;;;;25.50;17.80;;;1.00;99.90;;;;;;5023705;28;20271;-51
2022/12/20 00:58:22;;;;;;;28.97;17.13;;;1.00;99.90;;;;;;5023654;28;20206;-50
2022/12/20 01:00:50;;;;;;;25.37;17.63;;;1.10;99.90;;;;;;5031263;28;20617;-50
2022/12/20 01:03:17;;;;;;;28.70;18.90;;;1.10;99.90;;;;;;5031131;28;20235;-50
2022/12/20 01:05:52;;;;;;;24.27;16.90;;;1.10;99.90;;;;;;5031643;28;20675;-50
2022/12/20 01:08:19;;;;;;;26.37;16.63;;;1.10;99.90;;;;;;5023845;28;20710;-50
2022/12/20 01:10:46;;;;;;;24.00;16.50;;;1.10;99.90;;;;;;5029636;28;20196;-50
2022/12/20 01:13:15;;;;;;;26.97;16.67;;;1.10;99.90;;;;;;5029786;28;20243;-52
2022/12/20 01:15:42;;;;;;;19.27;14.37;;;1.10;99.90;;;;;;5030249;28;20215;-50
2022/12/20 01:18:09;;;;;;;20.77;15.33;;;1.10;99.90;;;;;;5031119;28;20678;-50
2022/12/20 01:20:36;;;;;;;28.07;16.73;;;1.10;99.90;;;;;;5029652;28;20230;-51
2022/12/20 01:23:03;;;;;;;25.53;15.73;;;1.10;99.90;;;;;;5027050;28;20769;-50
2022/12/20 01:25:30;;;;;;;24.73;15.53;;;1.10;99.90;;;;;;5031218;28;20212;-51
2022/12/20 01:27:57;;;;;;;21.33;14.10;;;1.10;99.90;;;;;;5031936;28;20206;-50
2022/12/20 01:30:25;;;;;;;21.33;12.37;;;1.10;99.90;;;;;;5029790;28;20202;-51
2022/12/20 01:32:52;;;;;;;13.40;10.73;;;1.10;99.90;;;;;;5028065;28;20220;-50
2022/12/20 01:35:19;;;;;;;16.23;11.83;;;1.20;99.90;;;;;;5017222;28;20204;-50
2022/12/20 01:37:46;;;;;;;17.73;10.77;;;1.20;99.90;;;;;;5029777;28;20210;-50
2022/12/20 01:40:14;;;;;;;19.80;11.83;;;1.30;99.90;;;;;;5031016;28;20225;-50
2022/12/20 01:42:41;;;;;;;15.70;11.53;;;1.30;99.90;;;;;;5031517;28;20297;-50
2022/12/20 01:45:14;;;;;;;16.70;11.53;;;1.40;99.90;;;;;;5027580;28;20213;-50
2022/12/20 01:47:43;;;;;;;15.07;11.37;;;1.30;99.90;;;;;;5028708;28;20217;-50
2022/12/20 01:50:10;;;;;;;20.00;11.23;;;1.30;99.90;;;;;;5031280;28;20203;-50
2022/12/20 01:52:42;;;;;;;15.37;10.90;;;1.20;99.90;;;;;;5030984;28;20330;-50
2022/12/20 01:55:13;;;;;;;12.60;10.20;;;1.20;99.90;;;;;;5031356;28;20683;-50
2022/12/20 01:57:45;;;;;;;17.90;10.77;;;1.20;99.90;;;;;;5031850;28;20196;-51
2022/12/20 02:00:14;;;;;;;12.73;9.37;;;1.10;99.90;;;;;;5031347;28;20222;-52
2022/12/20 02:02:45;;;;;;;10.70;7.97;;;1.10;99.90;;;;;;5037582;28;20684;-50
2022/12/20 02:05:13;;;;;;;9.10;7.60;;;1.10;99.90;;;;;;5054710;28;20294;-50
2022/12/20 02:07:42;;;;;;;13.97;8.53;;;1.10;99.90;;;;;;5054503;28;20257;-50
2022/12/20 02:10:11;;;;;;;12.53;8.87;;;1.10;99.90;;;;;;5043662;28;20574;-50
2022/12/20 02:12:41;;;;;;;11.90;8.03;;;1.20;99.90;;;;;;5040135;28;20296;-50
2022/12/20 02:15:29;;;;;;;12.13;9.20;;;1.30;99.90;;;;;;5032344;28;20232;-50
2022/12/20 02:18:16;;;;;;;9.17;7.77;;;1.30;99.90;;;;;;5031478;28;20204;-50
2022/12/20 02:21:10;;;;;;;10.90;8.87;;;1.30;99.90;;;;;;5032591;28;20227;-51
2022/12/20 02:24:28;;;;;;;11.53;8.63;;;1.30;99.90;;;;;;5032223;28;20713;-50
2022/12/20 02:27:10;;;;;;;11.03;9.20;;;1.20;99.90;;;;;;5033648;28;20228;-51
2022/12/20 02:29:42;;;;;;;11.17;8.93;;;1.30;99.90;;;;;;5033641;28;20210;-50
2022/12/20 02:32:21;;;;;;;12.03;9.27;;;1.40;99.90;;;;;;5033539;28;20641;-51
2022/12/20 02:34:49;;;;;;;10.47;8.77;;;1.40;99.90;;;;;;5039808;28;20302;-50
2022/12/20 02:37:16;;;;;;;13.20;9.83;;;1.50;99.90;;;;;;5034575;28;20672;-50
2022/12/20 02:39:45;;;;;;;13.63;9.30;;;1.50;99.90;;;;;;5033006;28;20228;-50
2022/12/20 02:42:14;;;;;;;14.60;9.90;;;1.40;99.90;;;;;;5041632;28;20208;-50
2022/12/20 02:47:38;;;;;;;11.47;8.90;;;1.30;99.90;;;;;;5025763;28;20229;-51
2022/12/20 02:50:08;;;;;;;12.43;8.60;;;1.30;99.90;;;;;;5034137;28;20233;-50
2022/12/20 02:52:36;;;;;;;11.97;7.83;;;1.40;99.90;;;;;;5029960;28;20224;-51
2022/12/20 02:55:05;;;;;;;11.27;8.57;;;1.40;99.90;;;;;;5033181;28;20203;-50
2022/12/20 02:57:38;;;;;;;11.13;7.93;;;1.50;99.90;;;;;;5032000;28;20210;-50
2022/12/20 03:00:08;;;;;;;10.47;8.30;;;1.70;99.90;;;;;;5035556;28;20656;-50
2022/12/20 03:05:20;;;;;;;13.80;7.60;;;1.80;99.90;;;;;;5031466;28;20208;-50
2022/12/20 03:07:47;;;;;;;10.43;6.97;;;1.80;99.90;;;;;;5031363;28;20284;-50
2022/12/20 03:10:14;;;;;;;10.00;6.13;;;1.80;99.90;;;;;;5029064;28;20254;-51
2022/12/20 03:12:41;;;;;;;7.33;5.97;;;1.80;99.90;;;;;;5025523;28;20240;-50
2022/12/20 03:15:09;;;;;;;10.17;6.00;;;1.90;99.90;;;;;;5030400;28;20207;-50
2022/12/20 03:17:38;;;;;;;8.83;5.73;;;1.90;99.90;;;;;;5032940;28;20243;-50
2022/12/20 03:20:06;;;;;;;11.37;6.17;;;2.00;99.90;;;;;;5032821;28;20219;-50
2022/12/20 03:22:34;;;;;;;8.07;5.60;;;2.00;99.90;;;;;;5032135;28;20251;-50
2022/12/20 03:25:01;;;;;;;7.40;5.63;;;2.10;99.90;;;;;;5026380;28;20216;-50
2022/12/20 03:27:28;;;;;;;5.70;5.13;;;2.20;99.90;;;;;;5029841;28;20212;-50
2022/12/20 03:29:55;;;;;;;6.83;6.13;;;2.30;99.90;;;;;;5032463;28;20204;-50
2022/12/20 03:32:22;;;;;;;6.73;5.17;;;2.30;99.90;;;;;;5032790;28;20250;-51
2022/12/20 03:34:51;;;;;;;5.87;5.27;;;2.30;99.90;;;;;;5032677;28;20682;-50
2022/12/20 03:37:18;;;;;;;6.47;5.87;;;2.30;99.90;;;;;;5020729;28;20655;-50
2022/12/20 03:39:45;;;;;;;6.73;5.73;;;2.30;99.90;;;;;;5026162;28;20227;-50
2022/12/20 03:42:12;;;;;;;6.10;5.57;;;2.30;99.90;;;;;;5032257;28;20203;-50
2022/12/20 03:44:39;;;;;;;6.00;5.40;;;2.30;99.90;;;;;;5032551;28;20206;-50
2022/12/20 03:47:06;;;;;;;6.57;5.13;;;2.20;99.90;;;;;;5031144;28;20848;-50
2022/12/20 03:49:33;;;;;;;6.07;5.17;;;2.20;99.90;;;;;;5022563;28;20572;-49
2022/12/20 03:52:01;;;;;;;8.00;6.20;;;2.20;99.90;;;;;;5026783;28;20199;-50
2022/12/20 03:54:28;;;;;;;6.30;5.63;;;2.20;99.90;;;;;;5028340;28;20210;-51
2022/12/20 03:56:57;;;;;;;7.17;6.23;;;2.20;99.90;;;;;;5032007;28;20611;-50
2022/12/20 03:59:24;;;;;;;8.80;6.70;;;2.20;99.90;;;;;;5027443;28;20213;-51
2022/12/20 04:01:55;;;;;;;6.37;5.20;;;2.10;99.90;;;;;;5031487;28;20236;-50
2022/12/20 04:04:22;;;;;;;7.20;6.10;;;2.20;99.90;;;;;;5025162;28;20231;-50
2022/12/20 04:06:49;;;;;;;6.70;5.57;;;2.10;99.90;;;;;;5031710;28;20212;-51
2022/12/20 04:09:17;;;;;;;6.97;6.17;;;2.20;99.90;;;;;;5030762;28;20230;-50
2022/12/20 04:11:44;;;;;;;6.83;5.67;;;2.30;99.90;;;;;;5033238;28;20204;-49
2022/12/20 04:14:11;;;;;;;9.70;6.60;;;2.30;99.90;;;;;;5032708;28;20293;-51
2022/12/20 04:16:38;;;;;;;7.03;6.33;;;2.40;99.90;;;;;;5026196;28;20204;-49
2022/12/20 04:19:05;;;;;;;7.37;6.13;;;2.40;99.90;;;;;;5026799;28;20266;-50
2022/12/20 04:21:35;;;;;;;8.83;6.17;;;2.40;99.90;;;;;;5031483;28;20219;-50
2022/12/20 04:24:03;;;;;;;8.43;6.23;;;2.40;99.90;;;;;;5024095;28;20294;-51
2022/12/20 04:26:32;;;;;;;7.77;6.20;;;2.40;99.90;;;;;;5024529;28;20208;-50
2022/12/20 04:28:59;;;;;;;7.60;5.33;;;2.30;99.90;;;;;;5029033;28;20687;-50
2022/12/20 04:31:26;;;;;;;6.90;5.73;;;2.20;99.90;;;;;;5031647;28;20199;-51
2022/12/20 04:33:53;;;;;;;7.47;5.77;;;2.10;99.90;;;;;;5031600;28;20228;-50
2022/12/20 04:36:21;;;;;;;6.47;5.87;;;2.00;99.90;;;;;;5031420;28;20207;-51
2022/12/20 04:38:47;;;;;;;9.10;6.03;;;2.00;99.90;;;;;;5029452;28;20200;-51
2022/12/20 04:41:21;;;;;;;11.43;9.17;;;1.90;99.90;;;;;;5020765;28;20254;-51
2022/12/20 04:43:50;;;;;;;16.47;12.03;;;1.90;99.90;;;;;;5021121;28;20282;-51
2022/12/20 04:46:17;;;;;;;12.30;11.10;;;1.90;99.90;;;;;;5029507;28;20205;-49
2022/12/20 04:48:44;;;;;;;9.30;7.93;;;1.70;99.90;;;;;;5031193;28;20212;-50
2022/12/20 04:51:11;;;;;;;8.53;6.77;;;1.70;99.90;;;;;;5025197;28;20200;-50
2022/12/20 04:53:46;;;;;;;7.90;5.90;;;1.70;99.90;;;;;;5021158;28;20754;-50
2022/12/20 04:56:15;;;;;;;19.33;9.67;;;1.80;99.90;;;;;;5031145;28;20202;-50
2022/12/20 04:58:42;;;;;;;12.23;8.20;;;1.90;99.90;;;;;;5023004;28;20210;-50
2022/12/20 05:01:10;;;;;;;8.87;7.00;;;1.90;99.90;;;;;;5030934;28;20215;-50
2022/12/20 05:03:37;;;;;;;8.27;6.50;;;1.80;99.90;;;;;;5023915;28;20654;-50
2022/12/20 05:06:05;;;;;;;8.73;7.07;;;1.90;99.90;;;;;;5030984;28;20337;-50
2022/12/20 05:08:32;;;;;;;8.57;6.93;;;1.90;99.90;;;;;;5031142;28;20265;-50
2022/12/20 05:10:59;;;;;;;8.23;6.30;;;2.00;99.90;;;;;;5031219;28;20290;-49
2022/12/20 05:13:26;;;;;;;7.97;6.13;;;2.00;99.90;;;;;;5026162;28;20717;-51
2022/12/20 05:15:55;;;;;;;8.10;6.17;;;1.90;99.90;;;;;;5022346;28;20651;-50
2022/12/20 05:18:24;;;;;;;6.80;5.77;;;1.90;99.90;;;;;;5030383;28;20238;-50
2022/12/20 05:26:16;;;;;;;8.67;6.30;;;1.90;99.90;;;;;;5030848;28;20225;-50
2022/12/20 05:26:23;;;;;;;11.23;8.33;;;1.80;99.90;;;;;;5024259;28;20331;-52
2022/12/20 05:28:51;;;;;;;10.83;8.13;;;1.80;99.90;;;;;;5024999;28;20212;-49
2022/12/20 05:31:18;;;;;;;7.27;5.30;;;1.80;99.90;;;;;;5021441;28;20663;-49
2022/12/20 05:33:47;;;;;;;6.00;5.13;;;1.80;99.90;;;;;;5033771;28;20568;-50
2022/12/20 05:36:14;;;;;;;6.40;5.70;;;1.90;99.90;;;;;;5054671;28;20203;-49
2022/12/20 05:38:41;;;;;;;7.73;5.70;;;2.00;99.90;;;;;;5037238;28;20199;-49
2022/12/20 05:41:08;;;;;;;7.77;5.67;;;2.10;99.90;;;;;;5033162;28;20235;-47
2022/12/20 05:43:35;;;;;;;4.83;4.33;;;2.10;99.90;;;;;;5028393;28;20224;-49
2022/12/20 05:46:02;;;;;;;6.50;5.83;;;2.10;99.90;;;;;;5032519;28;20250;-47
2022/12/20 05:48:30;;;;;;;5.97;5.00;;;2.10;99.90;;;;;;5023842;28;20207;-50
2022/12/20 05:50:58;;;;;;;6.27;5.67;;;2.10;99.90;;;;;;5028283;28;20679;-47
2022/12/20 05:53:26;;;;;;;5.03;4.53;;;2.00;99.90;;;;;;5028082;28;20290;-48
2022/12/20 05:55:54;;;;;;;6.60;5.87;;;2.00;99.90;;;;;;5034098;28;20202;-50
2022/12/20 05:58:21;;;;;;;9.33;5.83;;;2.00;99.90;;;;;;5034098;28;20235;-48
2022/12/20 06:00:49;;;;;;;8.10;6.20;;;2.00;99.90;;;;;;5027656;28;20224;-48
2022/12/20 06:03:16;;;;;;;6.07;5.00;;;1.90;99.90;;;;;;5033272;28;20232;-48
2022/12/20 06:05:43;;;;;;;7.53;6.33;;;1.90;99.90;;;;;;5023432;28;20948;-48
2022/12/20 06:08:13;;;;;;;8.23;6.03;;;1.90;99.90;;;;;;5029291;28;20236;-47
2022/12/20 06:10:41;;;;;;;6.77;5.90;;;1.90;99.90;;;;;;5024829;28;20204;-48
2022/12/20 06:13:09;;;;;;;8.57;6.37;;;1.90;99.90;;;;;;5033479;28;20304;-48
2022/12/20 06:15:37;;;;;;;13.27;7.83;;;1.80;99.90;;;;;;5034584;28;20261;-48
2022/12/20 06:18:05;;;;;;;8.63;6.40;;;1.80;99.90;;;;;;5025475;28;20300;-49
2022/12/20 06:20:32;;;;;;;8.27;6.67;;;1.70;99.90;;;;;;5028440;28;20203;-47
2022/12/20 06:22:59;;;;;;;5.60;5.20;;;1.70;99.90;;;;;;5030554;28;20645;-48
2022/12/20 06:25:28;;;;;;;5.97;5.37;;;1.70;99.90;;;;;;5033028;28;20199;-49
2022/12/20 06:27:56;;;;;;;8.47;7.30;;;1.80;99.90;;;;;;5033589;28;20786;-47
2022/12/20 06:30:25;;;;;;;5.63;5.10;;;1.80;99.90;;;;;;5028055;28;20203;-46
2022/12/20 06:32:52;;;;;;;5.53;4.33;;;1.90;99.90;;;;;;5033430;28;20762;-48
2022/12/20 06:35:19;;;;;;;5.30;4.37;;;1.90;99.90;;;;;;5032269;28;20585;-50
2022/12/20 06:37:46;;;;;;;5.13;4.57;;;1.90;99.90;;;;;;5033687;28;20270;-50
2022/12/20 06:40:15;;;;;;;4.40;4.03;;;2.00;99.90;;;;;;5033385;28;20204;-49
2022/12/20 06:42:47;;;;;;;3.97;3.67;;;2.00;99.90;;;;;;5032527;28;20231;-48
2022/12/20 06:45:16;;;;;;;7.10;5.47;;;2.00;99.90;;;;;;5026302;28;20203;-48
2022/12/20 06:47:45;;;;;;;6.87;6.17;;;2.10;99.90;;;;;;5032842;28;20200;-48
2022/12/20 06:50:12;;;;;;;18.00;6.30;;;2.20;99.90;;;;;;5033150;28;20203;-50
2022/12/20 06:52:40;;;;;;;6.63;5.70;;;2.30;99.90;;;;;;5025303;28;20299;-49
2022/12/20 06:55:08;;;;;;;8.47;5.33;;;2.30;99.90;;;;;;5033034;28;20208;-48
2022/12/20 06:57:37;;;;;;;4.93;4.40;;;2.30;99.90;;;;;;5032924;28;20199;-49
2022/12/20 07:00:09;;;;;;;4.33;3.70;;;2.30;99.90;;;;;;5032923;28;20200;-48
2022/12/20 07:02:37;;;;;;;6.97;5.43;;;2.30;99.90;;;;;;5033044;28;20231;-49
2022/12/20 07:05:05;;;;;;;5.77;4.60;;;2.40;99.90;;;;;;5033396;28;20195;-47
2022/12/20 07:07:35;;;;;;;6.93;5.73;;;2.50;99.90;;;;;;5033154;28;20215;-48
2022/12/20 07:10:02;;;;;;;9.37;6.03;;;2.40;99.90;;;;;;5038279;28;20204;-48
2022/12/20 07:12:29;;;;;;;7.17;6.47;;;2.50;99.90;;;;;;5033116;28;20270;-49
2022/12/20 07:14:56;;;;;;;6.33;5.43;;;2.50;99.90;;;;;;5032935;28;20196;-48
2022/12/20 07:17:25;;;;;;;6.57;5.33;;;2.40;99.90;;;;;;5036219;28;20204;-49
2022/12/20 07:19:52;;;;;;;6.53;5.10;;;2.30;99.90;;;;;;5029159;28;20238;-49
2022/12/20 07:22:19;;;;;;;5.80;4.77;;;2.20;99.90;;;;;;5041468;28;20283;-49
2022/12/20 07:24:46;;;;;;;6.37;5.20;;;2.10;99.90;;;;;;5024491;28;20220;-49
2022/12/20 07:27:13;;;;;;;8.53;5.37;;;2.10;99.90;;;;;;5022706;28;20204;-48
2022/12/20 07:29:41;;;;;;;6.37;5.53;;;2.20;99.90;;;;;;5021363;28;20200;-46
2022/12/20 07:32:08;;;;;;;7.00;5.80;;;2.20;99.90;;;;;;5017619;28;20270;-47
2022/12/20 07:34:38;;;;;;;10.87;5.33;;;2.30;99.90;;;;;;5029516;28;20223;-49
2022/12/20 07:37:05;;;;;;;12.70;5.83;;;2.20;99.90;;;;;;5037081;28;20580;-47
2022/12/20 07:39:32;;;;;;;12.67;6.73;;;2.20;99.90;;;;;;5028955;28;20207;-49
2022/12/20 07:41:59;;;;;;;11.07;6.67;;;2.20;99.90;;;;;;5036689;28;20703;-48
2022/12/20 07:44:26;;;;;;;9.53;5.67;;;2.20;99.90;;;;;;5016211;28;20220;-48
2022/12/20 07:46:57;;;;;;;5.50;5.00;;;2.30;99.90;;;;;;5028350;28;20211;-49
2022/12/20 07:49:24;;;;;;;8.73;5.67;;;2.30;99.90;;;;;;5032107;28;20208;-49
2022/12/20 07:51:57;;;;;;;6.83;5.47;;;2.50;99.90;;;;;;5032307;28;20535;-47
2022/12/20 07:54:28;;;;;;;8.13;5.43;;;2.70;99.90;;;;;;5038626;28;20297;-49
2022/12/20 07:56:59;;;;;;;5.10;4.13;;;2.80;99.90;;;;;;5033897;28;20196;-48
2022/12/20 07:59:32;;;;;;;5.80;4.30;;;2.80;99.90;;;;;;5030228;28;20208;-48
2022/12/20 08:01:59;;;;;;;5.10;4.60;;;2.80;99.90;;;;;;5012878;28;20255;-48
2022/12/20 08:04:29;;;;;;;7.03;5.83;;;2.80;99.90;;;;;;5023293;28;20236;-49
2022/12/20 08:07:00;;;;;;;6.13;5.47;;;2.80;99.90;;;;;;5029466;28;20251;-48
2022/12/20 08:09:30;;;;;;;5.23;4.73;;;2.80;99.90;;;;;;5027374;28;20643;-47
2022/12/20 08:11:59;;;;;;;7.73;5.57;;;2.80;99.90;;;;;;5032206;28;20212;-48
2022/12/20 08:14:26;;;;;;;6.63;5.53;;;2.90;99.90;;;;;;5031945;28;20279;-49
2022/12/20 08:16:55;;;;;;;4.43;4.13;;;2.80;99.90;;;;;;5030418;28;20208;-47
2022/12/20 08:19:22;;;;;;;7.13;5.33;;;2.80;99.90;;;;;;5012692;28;20211;-48
2022/12/20 08:21:49;;;;;;;5.73;4.80;;;2.80;99.90;;;;;;5012059;28;20221;-48
2022/12/20 08:24:17;;;;;;;8.70;6.17;;;2.80;99.90;;;;;;5011904;28;20254;-48
2022/12/20 08:26:44;;;;;;;12.17;7.87;;;2.80;99.90;;;;;;5047536;28;20265;-50
2022/12/20 08:29:11;;;;;;;12.83;9.17;;;2.70;99.90;;;;;;5046305;28;20208;-49
2022/12/20 08:31:39;;;;;;;13.57;8.70;;;2.70;99.90;;;;;;5030881;28;20207;-50
2022/12/20 08:34:06;;;;;;;11.37;6.77;;;2.70;99.90;;;;;;5024091;28;20229;-49
2022/12/20 08:36:33;;;;;;;12.47;7.30;;;2.70;99.90;;;;;;5023936;28;20201;-48
2022/12/20 08:39:03;;;;;;;9.47;6.57;;;2.70;99.90;;;;;;5031233;28;20701;-50
2022/12/20 08:41:31;;;;;;;9.93;7.20;;;2.80;99.90;;;;;;5031443;28;20223;-48
2022/12/20 08:43:58;;;;;;;10.20;6.80;;;2.80;99.90;;;;;;5031344;28;20232;-48
2022/12/20 08:46:25;;;;;;;9.23;6.67;;;2.80;99.90;;;;;;5031806;28;20212;-48
2022/12/20 08:48:53;;;;;;;11.40;7.63;;;2.90;99.90;;;;;;5031241;28;20203;-50
2022/12/20 08:51:20;;;;;;;7.83;5.90;;;3.00;99.90;;;;;;5022112;28;20231;-49
2022/12/20 08:53:47;;;;;;;7.00;5.57;;;3.10;99.90;;;;;;5008253;28;20233;-51
2022/12/20 08:56:16;;;;;;;8.20;5.57;;;3.20;99.90;;;;;;5014003;28;20211;-52
2022/12/20 08:58:45;;;;;;;6.50;5.53;;;3.20;99.90;;;;;;5009983;28;20201;-50
2022/12/20 09:01:14;;;;;;;6.70;5.30;;;3.30;99.90;;;;;;5012463;28;20217;-49
2022/12/20 09:03:42;;;;;;;10.73;7.07;;;3.50;99.90;;;;;;5011480;28;20599;-50
2022/12/20 09:06:11;;;;;;;6.33;5.33;;;3.60;99.90;;;;;;5014730;28;20687;-51
2022/12/20 09:08:40;;;;;;;14.67;8.00;;;3.60;99.90;;;;;;5013987;28;20216;-52
2022/12/20 09:11:10;;;;;;;14.00;8.63;;;3.70;99.90;;;;;;5018116;28;20222;-51
2022/12/20 09:13:37;;;;;;;12.27;8.97;;;3.80;99.90;;;;;;5012500;28;20584;-50
2022/12/20 09:16:07;;;;;;;12.93;10.00;;;3.80;99.90;;;;;;5013276;28;20624;-50
2022/12/20 09:18:35;;;;;;;14.63;9.60;;;3.90;99.90;;;;;;5018581;28;20641;-50
2022/12/20 09:21:03;;;;;;;9.03;8.07;;;3.90;99.90;;;;;;5031019;28;20223;-50
2022/12/20 09:23:32;;;;;;;11.17;8.80;;;3.90;99.90;;;;;;5007821;28;20655;-50
2022/12/20 09:26:02;;;;;;;13.73;9.40;;;4.00;99.90;;;;;;5024288;28;20700;-50
2022/12/20 09:28:30;;;;;;;10.10;8.73;;;4.00;99.90;;;;;;5012096;28;20613;-51
2022/12/20 09:30:59;;;;;;;10.80;8.37;;;4.10;99.90;;;;;;5007559;28;20206;-50
2022/12/20 09:33:27;;;;;;;12.77;9.00;;;4.20;99.90;;;;;;5014307;28;20784;-51
2022/12/20 09:35:55;;;;;;;9.07;8.03;;;4.20;99.90;;;;;;5020518;28;20200;-50
2022/12/20 09:38:22;;;;;;;9.87;8.50;;;4.20;99.90;;;;;;5026605;28;20215;-50
2022/12/20 09:40:52;;;;;;;12.73;8.97;;;4.20;99.90;;;;;;5025875;28;20200;-50
2022/12/20 09:43:21;;;;;;;11.30;9.20;;;4.30;99.90;;;;;;5015634;28;20648;-51
2022/12/20 09:45:52;;;;;;;15.63;9.13;;;4.30;99.90;;;;;;5028724;28;20209;-51
2022/12/20 09:48:23;;;;;;;14.13;9.73;;;4.30;99.90;;;;;;5023591;28;20213;-50
2022/12/20 09:51:00;;;;;;;11.93;9.00;;;4.30;99.90;;;;;;5015215;28;20202;-49
2022/12/20 09:53:36;;;;;;;16.47;8.97;;;4.40;99.90;;;;;;5024968;28;20254;-50
2022/12/20 09:56:10;;;;;;;10.77;8.33;;;4.40;99.90;;;;;;5020757;28;20263;-50
2022/12/20 09:58:54;;;;;;;9.43;8.47;;;4.40;99.90;;;;;;5021499;28;20249;-49
2022/12/20 10:01:23;;;;;;;8.50;7.70;;;4.40;99.90;;;;;;5021467;28;20280;-51
2022/12/20 10:03:51;;;;;;;10.37;7.30;;;4.40;99.90;;;;;;5013013;28;20689;-51
2022/12/20 10:06:30;;;;;;;12.27;6.87;;;4.40;99.90;;;;;;5024936;28;20664;-51
2022/12/20 10:08:59;;;;;;;9.17;7.43;;;4.50;99.90;;;;;;5025554;28;20202;-51
2022/12/20 10:11:49;;;;;;;20.10;13.20;;;4.60;99.90;;;;;;5014943;28;20209;-52
2022/12/20 10:14:39;;;;;;;11.30;10.10;;;4.60;99.90;;;;;;5015434;28;20416;-51
2022/12/20 10:17:11;;;;;;;15.90;11.33;;;4.70;99.90;;;;;;5015230;28;20253;-51
2022/12/20 10:20:08;;;;;;;17.50;11.97;;;4.60;99.90;;;;;;5020248;28;20203;-51
2022/12/20 10:22:43;;;;;;;15.53;10.10;;;4.60;99.90;;;;;;5019560;28;20312;-51
2022/12/20 10:25:17;;;;;;;19.20;12.40;;;4.60;99.90;;;;;;5013744;28;20581;-51
2022/12/20 10:27:47;;;;;;;26.77;16.37;;;4.70;99.90;;;;;;5011423;28;20214;-50
2022/12/20 10:30:16;;;;;;;26.37;16.27;;;4.80;99.90;;;;;;5010471;28;20206;-51
2022/12/20 10:32:46;;;;;;;31.20;19.67;;;4.90;99.90;;;;;;5010722;28;20229;-51
2022/12/20 10:35:23;;;;;;;31.87;19.33;;;5.00;99.90;;;;;;5013433;28;20264;-50
2022/12/20 10:38:03;;;;;;;34.77;20.93;;;5.00;99.90;;;;;;5021243;28;20271;-52
2022/12/20 10:40:32;;;;;;;32.20;20.07;;;5.10;99.90;;;;;;5012858;28;20310;-51
2022/12/20 10:43:00;;;;;;;33.50;21.90;;;5.10;99.90;;;;;;5009377;28;20250;-50
2022/12/20 10:45:34;;;;;;;29.97;20.43;;;5.20;99.90;;;;;;5013283;28;20339;-52
2022/12/20 10:48:04;;;;;;;30.23;20.57;;;5.20;99.90;;;;;;5011564;28;20256;-51
2022/12/20 10:50:32;;;;;;;30.73;21.47;;;5.20;99.90;;;;;;5013279;28;20209;-51
2022/12/20 10:53:23;;;;;;;32.63;22.17;;;5.20;99.90;;;;;;5010765;28;20629;-50
2022/12/20 10:55:50;;;;;;;33.30;20.63;;;5.30;99.90;;;;;;5006432;28;20205;-51
2022/12/20 10:58:30;;;;;;;30.83;21.20;;;5.30;99.90;;;;;;5016744;28;20232;-50
2022/12/20 11:01:06;;;;;;;31.43;19.43;;;5.20;99.90;;;;;;5015564;28;20576;-51
2022/12/20 11:03:33;;;;;;;30.67;20.53;;;5.20;99.90;;;;;;5023260;28;20232;-50
2022/12/20 11:06:03;;;;;;;30.40;20.63;;;5.20;99.90;;;;;;5012948;28;20206;-50
2022/12/20 11:08:33;;;;;;;34.83;22.73;;;5.20;99.90;;;;;;5011039;28;21874;-52
2022/12/20 11:11:19;;;;;;;31.10;22.23;;;5.20;99.90;;;;;;5010562;28;20197;-50
2022/12/20 11:13:47;;;;;;;31.53;22.30;;;5.00;99.90;;;;;;5011132;28;20728;-51
2022/12/20 11:16:35;;;;;;;33.93;21.50;;;5.00;99.90;;;;;;5012381;28;20294;-51
2022/12/20 11:19:27;;;;;;;36.43;23.60;;;5.00;99.90;;;;;;5010445;28;20299;-50
2022/12/20 11:22:03;;;;;;;37.17;23.70;;;5.00;99.90;;;;;;4998603;28;20919;-51
2022/12/20 11:24:38;;;;;;;42.63;25.83;;;5.00;99.90;;;;;;5024154;28;20206;-51
2022/12/20 11:27:15;;;;;;;38.83;26.97;;;5.00;99.90;;;;;;5014518;28;20338;-50
2022/12/20 11:30:06;;;;;;;38.40;24.67;;;5.10;99.90;;;;;;5014341;28;20703;-50
2022/12/20 11:32:55;;;;;;;33.90;26.17;;;5.10;99.90;;;;;;5010088;28;20946;-50
2022/12/20 11:35:30;;;;;;;33.93;25.57;;;5.20;99.90;;;;;;5016374;28;20263;-50
2022/12/20 11:38:11;;;;;;;31.10;22.53;;;5.30;99.90;;;;;;5021808;28;20824;-50
2022/12/20 11:40:48;;;;;;;38.13;26.10;;;5.20;99.90;;;;;;5011034;28;20202;-51
2022/12/20 11:43:39;;;;;;;34.30;23.83;;;5.20;99.90;;;;;;5013143;28;20657;-49
2022/12/20 11:46:21;;;;;;;33.77;22.90;;;5.20;99.90;;;;;;5015192;28;20206;-50
2022/12/20 11:49:03;;;;;;;37.20;24.43;;;5.30;99.90;;;;;;5013556;28;20677;-49
2022/12/20 11:51:39;;;;;;;36.27;24.63;;;5.40;99.90;;;;;;5011762;28;20208;-50
2022/12/20 11:54:12;;;;;;;39.47;25.73;;;5.40;99.90;;;;;;5023864;28;20221;-50
2022/12/20 11:56:43;;;;;;;37.87;27.20;;;5.60;99.90;;;;;;5016272;28;20205;-50
2022/12/20 11:59:18;;;;;;;41.03;27.33;;;5.80;99.90;;;;;;5012862;28;20200;-51
2022/12/20 12:01:54;;;;;;;40.67;27.40;;;6.10;99.90;;;;;;5008453;28;20208;-51
2022/12/20 12:04:25;;;;;;;32.40;23.07;;;6.40;99.90;;;;;;5009906;28;20236;-52
2022/12/20 12:06:59;;;;;;;42.40;26.70;;;6.60;99.90;;;;;;5022157;28;20204;-50
2022/12/20 12:09:33;;;;;;;30.90;22.33;;;6.60;99.90;;;;;;5025455;28;20255;-51
2022/12/20 12:12:06;;;;;;;35.03;21.90;;;6.40;99.90;;;;;;5022867;28;20666;-51
2022/12/20 12:14:44;;;;;;;26.80;20.43;;;6.40;99.90;;;;;;5011718;28;20268;-52
2022/12/20 12:17:24;;;;;;;27.40;20.90;;;6.30;99.90;;;;;;5016886;28;20683;-49
2022/12/20 12:19:54;;;;;;;28.67;20.57;;;6.10;99.90;;;;;;5024532;28;20269;-51
2022/12/20 12:22:31;;;;;;;28.30;19.43;;;6.00;99.90;;;;;;5011134;28;20200;-50
2022/12/20 12:25:02;;;;;;;25.50;19.23;;;6.00;99.90;;;;;;5021853;28;20207;-49
2022/12/20 12:27:30;;;;;;;26.23;19.27;;;6.10;99.90;;;;;;5014986;28;20209;-50
2022/12/20 12:29:58;;;;;;;26.60;19.57;;;6.00;99.90;;;;;;5012284;28;20211;-49
2022/12/20 12:32:32;;;;;;;28.70;20.00;;;6.00;99.90;;;;;;5009372;28;20239;-50
2022/12/20 12:35:13;;;;;;;31.70;21.67;;;6.00;99.90;;;;;;5011342;28;20695;-51
2022/12/20 12:37:55;;;;;;;28.43;21.20;;;6.00;99.90;;;;;;5024027;28;20730;-50
2022/12/20 12:40:55;;;;;;;34.37;24.17;;;6.10;99.90;;;;;;5016002;28;20705;-51
2022/12/20 12:43:44;;;;;;;33.47;22.23;;;6.10;99.90;;;;;;4977080;28;20320;-49
2022/12/20 12:46:15;;;;;;;28.67;21.20;;;6.20;99.90;;;;;;5008303;28;20716;-50
2022/12/20 12:48:46;;;;;;;32.83;23.60;;;6.20;99.90;;;;;;5017701;28;20247;-51
2022/12/20 12:51:15;;;;;;;30.50;21.37;;;6.40;99.90;;;;;;5016135;28;20250;-49
2022/12/20 12:53:44;;;;;;;32.80;23.10;;;6.40;99.90;;;;;;5011604;28;20657;-50
2022/12/20 12:56:40;;;;;;;31.53;21.20;;;6.20;99.90;;;;;;5019950;28;20270;-51
2022/12/20 12:59:24;;;;;;;32.17;21.03;;;6.10;99.90;;;;;;4981718;28;20201;-50
2022/12/20 13:01:55;;;;;;;32.00;22.63;;;6.10;99.90;;;;;;5020269;28;20207;-51
2022/12/20 13:04:28;;;;;;;35.60;23.83;;;6.00;99.90;;;;;;5024169;28;20721;-50
2022/12/20 13:07:01;;;;;;;36.33;25.37;;;6.00;99.90;;;;;;5032229;28;20291;-50
2022/12/20 13:09:43;;;;;;;36.20;25.37;;;5.80;99.90;;;;;;5019592;28;20213;-51
2022/12/20 13:12:50;;;;;;;32.40;23.87;;;5.70;99.90;;;;;;5026007;28;20698;-50
2022/12/20 13:15:51;;;;;;;35.27;23.03;;;5.80;99.90;;;;;;5017324;28;20207;-49